Time;durP1;ratioP1;P1;durP2;ratioP2;P2;SDS_P1;SDS_P2;PMS_P1;PMS_P2;Temp;Humidity;BMP_temperature;BMP_pressure;BME280_temperature;BME280_humidity;BME280_pressure;Samples;Min_cycle;Max_cycle;Signal;HPM_P1;HPM_P2
2023/08/03 00:01:51;;;;;;;10.13;2.33;;;;;;;;;;4994585;28;25082;-72
2023/08/03 00:04:17;;;;;;;7.93;1.70;;;;;;;;;;4995750;28;25053;-71
2023/08/03 00:06:44;;;;;;;7.60;1.73;;;;;;;;;;5005260;28;25074;-72
2023/08/03 00:09:10;;;;;;;11.82;2.17;;;;;;;;;;4997239;28;25061;-73
2023/08/03 00:11:36;;;;;;;10.55;1.92;;;;;;;;;;4991772;28;25045;-72
2023/08/03 00:14:02;;;;;;;9.13;1.67;;;;;;;;;;4997842;28;25166;-74
2023/08/03 00:16:28;;;;;;;7.15;1.40;;;;;;;;;;5007086;28;25053;-71
2023/08/03 00:18:54;;;;;;;10.82;2.00;;;;;;;;;;5000917;28;25079;-72
2023/08/03 00:21:20;;;;;;;9.27;1.27;;;;;;;;;;5003957;28;25070;-73
2023/08/03 00:23:46;;;;;;;7.65;1.58;;;;;;;;;;4999600;28;25151;-71
2023/08/03 00:26:12;;;;;;;12.40;2.30;;;;;;;;;;5000764;28;25144;-73
2023/08/03 00:28:38;;;;;;;6.80;1.58;;;;;;;;;;5007132;28;25046;-71
2023/08/03 00:31:04;;;;;;;4.95;1.80;;;;;;;;;;4999268;28;25240;-72
2023/08/03 00:33:30;;;;;;;15.65;2.00;;;;;;;;;;5001187;28;25084;-71
2023/08/03 00:35:56;;;;;;;7.95;1.92;;;;;;;;;;5006181;28;25055;-73
2023/08/03 00:38:22;;;;;;;5.20;1.98;;;;;;;;;;4992771;28;25094;-71
2023/08/03 00:40:49;;;;;;;7.40;2.30;;;;;;;;;;4999846;28;25175;-71
2023/08/03 00:43:15;;;;;;;8.30;2.85;;;;;;;;;;5022275;28;25095;-71
2023/08/03 00:45:41;;;;;;;7.28;2.97;;;;;;;;;;5007152;28;25102;-72
2023/08/03 00:48:06;;;;;;;8.85;2.78;;;;;;;;;;5005774;28;25078;-73
2023/08/03 00:50:32;;;;;;;9.18;2.97;;;;;;;;;;5007095;28;25115;-71
2023/08/03 00:52:59;;;;;;;5.43;2.10;;;;;;;;;;5012271;28;25105;-72
2023/08/03 00:55:25;;;;;;;10.52;2.55;;;;;;;;;;5001610;28;25050;-71
2023/08/03 00:57:50;;;;;;;11.10;2.88;;;;;;;;;;4998340;28;25062;-70
2023/08/03 01:00:17;;;;;;;12.02;3.28;;;;;;;;;;5002318;28;25059;-71
2023/08/03 01:02:43;;;;;;;10.05;3.13;;;;;;;;;;4999668;28;25102;-72
2023/08/03 01:05:09;;;;;;;12.25;3.00;;;;;;;;;;5002535;28;25059;-72
2023/08/03 01:07:35;;;;;;;14.55;4.03;;;;;;;;;;5006292;28;25082;-73
2023/08/03 01:10:01;;;;;;;10.98;3.75;;;;;;;;;;4992795;28;25050;-73
2023/08/03 01:12:27;;;;;;;13.35;3.45;;;;;;;;;;5005239;28;25075;-72
2023/08/03 01:14:53;;;;;;;11.60;3.83;;;;;;;;;;5007698;28;25188;-73
2023/08/03 01:17:20;;;;;;;12.45;3.42;;;;;;;;;;5003866;28;25070;-73
2023/08/03 01:19:46;;;;;;;15.10;4.38;;;;;;;;;;5005343;28;25090;-71
2023/08/03 01:22:13;;;;;;;8.98;3.10;;;;;;;;;;4998024;28;25101;-73
2023/08/03 01:24:39;;;;;;;13.98;3.05;;;;;;;;;;5003585;28;25060;-73
2023/08/03 01:27:06;;;;;;;11.82;2.92;;;;;;;;;;4987723;28;25071;-70
2023/08/03 01:29:32;;;;;;;14.90;3.35;;;;;;;;;;5015055;28;25100;-71
2023/08/03 01:31:59;;;;;;;10.23;3.22;;;;;;;;;;5009222;28;25078;-72
2023/08/03 01:34:25;;;;;;;17.02;3.15;;;;;;;;;;5003368;28;25128;-71
2023/08/03 01:36:52;;;;;;;13.43;3.00;;;;;;;;;;5001171;28;25110;-71
2023/08/03 01:39:18;;;;;;;17.20;4.32;;;;;;;;;;4997933;28;25110;-72
2023/08/03 01:41:45;;;;;;;9.57;2.42;;;;;;;;;;5012115;28;25147;-70
2023/08/03 01:44:25;;;;;;;13.15;3.00;;;;;;;;;;4991323;28;25046;-71
2023/08/03 01:46:52;;;;;;;8.93;2.63;;;;;;;;;;4996291;28;25109;-71
2023/08/03 01:49:18;;;;;;;14.20;3.72;;;;;;;;;;5015629;28;25058;-71
2023/08/03 01:51:44;;;;;;;9.85;2.55;;;;;;;;;;5000079;28;25074;-71
2023/08/03 01:54:11;;;;;;;17.17;4.47;;;;;;;;;;5000480;28;25149;-73
2023/08/03 01:56:37;;;;;;;8.27;3.38;;;;;;;;;;4997889;28;25058;-73
2023/08/03 01:59:03;;;;;;;10.50;3.15;;;;;;;;;;4990193;28;25107;-70
2023/08/03 02:01:29;;;;;;;10.98;3.67;;;;;;;;;;5009953;28;25073;-70
2023/08/03 02:03:55;;;;;;;14.05;3.60;;;;;;;;;;5015400;28;25129;-69
2023/08/03 02:06:22;;;;;;;13.18;2.90;;;;;;;;;;5011504;28;25151;-69
2023/08/03 02:08:48;;;;;;;11.63;3.40;;;;;;;;;;4997053;28;25098;-70
2023/08/03 02:11:14;;;;;;;11.20;3.50;;;;;;;;;;4994716;28;25102;-70
2023/08/03 02:13:40;;;;;;;8.70;2.92;;;;;;;;;;4989258;28;25101;-70
2023/08/03 02:16:10;;;;;;;9.70;3.05;;;;;;;;;;5000373;28;25099;-70
2023/08/03 02:18:37;;;;;;;11.40;3.83;;;;;;;;;;5010493;28;25077;-69
2023/08/03 02:21:03;;;;;;;11.13;3.20;;;;;;;;;;4995694;28;25117;-69
2023/08/03 02:23:29;;;;;;;7.35;2.67;;;;;;;;;;5009724;28;25099;-69
2023/08/03 02:25:56;;;;;;;10.80;3.28;;;;;;;;;;4985582;28;25059;-70
2023/08/03 02:28:22;;;;;;;14.40;3.15;;;;;;;;;;4989710;28;25066;-70
2023/08/03 02:30:48;;;;;;;12.50;3.20;;;;;;;;;;4989875;28;25069;-70
2023/08/03 02:33:13;;;;;;;10.40;2.63;;;;;;;;;;4994138;28;25072;-71
2023/08/03 02:35:39;;;;;;;6.40;1.92;;;;;;;;;;4996974;28;25086;-70
2023/08/03 02:38:06;;;;;;;7.28;2.47;;;;;;;;;;4990004;28;25048;-69
2023/08/03 02:40:32;;;;;;;12.98;3.10;;;;;;;;;;4993521;28;25071;-70
2023/08/03 02:42:58;;;;;;;10.00;2.50;;;;;;;;;;4988287;28;25078;-69
2023/08/03 02:45:24;;;;;;;6.97;1.92;;;;;;;;;;4997008;28;25057;-70
2023/08/03 02:47:50;;;;;;;7.85;2.50;;;;;;;;;;4993101;28;25079;-70
2023/08/03 02:50:16;;;;;;;5.00;2.70;;;;;;;;;;4993113;28;25127;-70
2023/08/03 02:52:42;;;;;;;7.78;2.03;;;;;;;;;;5001965;28;25375;-68
2023/08/03 02:55:08;;;;;;;6.78;2.22;;;;;;;;;;5000789;28;25051;-70
2023/08/03 02:57:34;;;;;;;7.32;2.20;;;;;;;;;;4998787;28;25066;-70
2023/08/03 03:00:00;;;;;;;7.63;2.50;;;;;;;;;;4996746;28;25082;-70
2023/08/03 03:02:26;;;;;;;8.57;2.60;;;;;;;;;;4996177;28;25116;-71
2023/08/03 03:04:52;;;;;;;9.70;2.30;;;;;;;;;;4995091;28;25056;-71
2023/08/03 03:07:18;;;;;;;9.68;2.53;;;;;;;;;;4988652;28;25069;-71
2023/08/03 03:09:44;;;;;;;6.70;2.05;;;;;;;;;;4995354;28;25056;-69
2023/08/03 03:12:10;;;;;;;11.25;2.22;;;;;;;;;;5002162;28;25068;-71
2023/08/03 03:14:36;;;;;;;10.82;3.03;;;;;;;;;;4994888;28;25068;-69
2023/08/03 03:17:02;;;;;;;9.90;2.47;;;;;;;;;;4995008;28;25056;-74
2023/08/03 03:19:28;;;;;;;11.45;2.60;;;;;;;;;;4989588;28;25067;-70
2023/08/03 03:21:54;;;;;;;13.05;3.28;;;;;;;;;;4998645;28;25048;-68
2023/08/03 03:24:20;;;;;;;7.47;2.85;;;;;;;;;;4990509;28;25090;-72
2023/08/03 03:26:46;;;;;;;9.18;3.00;;;;;;;;;;4997871;28;25080;-69
2023/08/03 03:29:12;;;;;;;5.65;2.95;;;;;;;;;;4988912;28;25061;-70
2023/08/03 03:31:38;;;;;;;8.90;2.55;;;;;;;;;;4997735;28;25125;-70
2023/08/03 03:34:04;;;;;;;12.07;3.35;;;;;;;;;;4989450;28;25078;-70
2023/08/03 03:36:30;;;;;;;11.57;3.13;;;;;;;;;;4997059;28;25071;-70
2023/08/03 03:38:56;;;;;;;11.85;2.90;;;;;;;;;;4987629;28;25096;-70
2023/08/03 03:41:22;;;;;;;14.18;2.70;;;;;;;;;;5007734;28;25179;-70
2023/08/03 03:43:48;;;;;;;11.40;3.17;;;;;;;;;;4989675;28;25076;-70
2023/08/03 03:46:14;;;;;;;14.70;3.65;;;;;;;;;;4990218;28;25151;-71
2023/08/03 03:48:40;;;;;;;12.43;2.80;;;;;;;;;;4988654;28;25097;-71
2023/08/03 03:51:06;;;;;;;9.85;2.60;;;;;;;;;;4995623;28;25050;-72
2023/08/03 03:53:32;;;;;;;14.43;2.30;;;;;;;;;;4996170;28;25142;-70
2023/08/03 03:55:58;;;;;;;9.93;2.17;;;;;;;;;;4996672;28;25169;-72
2023/08/03 03:58:24;;;;;;;11.48;2.55;;;;;;;;;;4996032;28;25072;-69
2023/08/03 04:00:50;;;;;;;8.20;1.85;;;;;;;;;;4993785;28;25075;-71
2023/08/03 04:03:16;;;;;;;8.57;1.85;;;;;;;;;;4995875;28;25058;-71
2023/08/03 04:05:42;;;;;;;19.13;2.70;;;;;;;;;;5005660;28;25084;-73
2023/08/03 04:08:10;;;;;;;9.18;1.77;;;;;;;;;;4992162;28;25085;-70
2023/08/03 04:10:36;;;;;;;8.07;2.10;;;;;;;;;;5006885;28;25067;-71
2023/08/03 04:13:02;;;;;;;10.93;2.40;;;;;;;;;;4990128;28;25075;-70
2023/08/03 04:15:28;;;;;;;11.15;1.70;;;;;;;;;;4989377;28;25067;-70
2023/08/03 04:17:54;;;;;;;8.88;2.00;;;;;;;;;;4993329;28;25072;-70
2023/08/03 04:20:20;;;;;;;13.05;2.20;;;;;;;;;;4998155;28;25062;-73
2023/08/03 04:22:46;;;;;;;12.88;2.00;;;;;;;;;;5005810;28;25068;-73
2023/08/03 04:25:12;;;;;;;7.22;1.60;;;;;;;;;;4989183;28;25065;-73
2023/08/03 04:27:38;;;;;;;7.68;1.88;;;;;;;;;;4998604;28;25137;-72
2023/08/03 04:30:04;;;;;;;11.18;2.38;;;;;;;;;;4988351;28;25099;-71
2023/08/03 04:32:30;;;;;;;14.68;3.10;;;;;;;;;;4995201;28;25059;-70
2023/08/03 04:34:56;;;;;;;11.57;2.60;;;;;;;;;;4991614;28;25065;-72
2023/08/03 04:37:22;;;;;;;10.82;2.83;;;;;;;;;;4994939;28;25089;-71
2023/08/03 04:39:49;;;;;;;16.58;2.83;;;;;;;;;;4998749;28;25133;-71
2023/08/03 04:42:15;;;;;;;17.70;3.05;;;;;;;;;;4995004;28;25064;-72
2023/08/03 04:44:41;;;;;;;14.90;3.22;;;;;;;;;;5002761;28;25068;-70
2023/08/03 04:47:07;;;;;;;15.57;3.30;;;;;;;;;;4997897;28;25134;-72
2023/08/03 04:49:33;;;;;;;11.55;3.15;;;;;;;;;;5009503;28;25079;-73
2023/08/03 04:51:59;;;;;;;13.18;2.70;;;;;;;;;;5008339;28;25071;-72
2023/08/03 04:54:25;;;;;;;18.10;3.30;;;;;;;;;;5011546;28;25089;-70
2023/08/03 04:56:51;;;;;;;18.48;3.60;;;;;;;;;;4998682;28;25110;-70
2023/08/03 04:59:17;;;;;;;15.48;3.53;;;;;;;;;;4998983;28;25068;-70
2023/08/03 05:01:43;;;;;;;14.45;3.40;;;;;;;;;;4990656;28;25075;-70
2023/08/03 05:04:09;;;;;;;15.77;3.00;;;;;;;;;;4999415;28;25080;-70
2023/08/03 05:06:35;;;;;;;15.25;3.83;;;;;;;;;;4996143;28;25166;-70
2023/08/03 05:09:01;;;;;;;11.10;2.85;;;;;;;;;;4996420;28;25095;-70
2023/08/03 05:11:27;;;;;;;10.90;2.95;;;;;;;;;;4998076;28;25140;-69
2023/08/03 05:13:53;;;;;;;13.88;3.10;;;;;;;;;;5004282;28;25064;-69
2023/08/03 05:16:24;;;;;;;21.38;2.90;;;;;;;;;;4997832;28;25079;-70
2023/08/03 05:18:50;;;;;;;18.08;2.97;;;;;;;;;;4994379;28;25106;-74
2023/08/03 05:21:16;;;;;;;12.18;3.17;;;;;;;;;;4995719;28;25102;-73
2023/08/03 05:23:42;;;;;;;14.73;2.85;;;;;;;;;;5000297;28;25104;-73
2023/08/03 05:26:08;;;;;;;11.13;2.67;;;;;;;;;;4996111;28;25074;-73
2023/08/03 05:28:34;;;;;;;14.52;3.25;;;;;;;;;;5008733;28;25074;-74
2023/08/03 05:31:00;;;;;;;11.82;3.70;;;;;;;;;;4991446;28;25071;-75
2023/08/03 05:33:27;;;;;;;11.60;2.83;;;;;;;;;;5000580;28;25141;-75
2023/08/03 05:35:53;;;;;;;14.10;3.67;;;;;;;;;;4986094;28;25077;-74
2023/08/03 05:38:19;;;;;;;18.05;3.10;;;;;;;;;;4999889;28;25108;-74
2023/08/03 05:40:45;;;;;;;13.63;3.28;;;;;;;;;;4998277;28;25058;-74
2023/08/03 05:43:13;;;;;;;13.50;2.35;;;;;;;;;;4993420;28;25099;-74
2023/08/03 05:45:47;;;;;;;16.85;3.00;;;;;;;;;;5002832;28;25096;-74
2023/08/03 05:48:18;;;;;;;9.55;1.80;;;;;;;;;;5001980;28;25091;-74
2023/08/03 05:50:45;;;;;;;11.05;2.08;;;;;;;;;;4995080;28;25052;-74
2023/08/03 05:53:11;;;;;;;12.48;2.22;;;;;;;;;;4999224;28;25085;-72
2023/08/03 05:55:38;;;;;;;12.25;2.35;;;;;;;;;;5000518;28;25046;-72
2023/08/03 05:58:05;;;;;;;11.52;1.95;;;;;;;;;;4997943;28;25150;-73
2023/08/03 06:00:31;;;;;;;9.63;1.80;;;;;;;;;;4996884;28;25062;-74
2023/08/03 06:02:58;;;;;;;12.25;2.35;;;;;;;;;;5000469;28;25123;-73
2023/08/03 06:05:41;;;;;;;11.57;2.60;;;;;;;;;;4993908;28;25130;-73
2023/08/03 06:08:12;;;;;;;6.82;1.70;;;;;;;;;;5004314;28;25100;-73
2023/08/03 06:10:39;;;;;;;13.27;2.57;;;;;;;;;;4997487;28;25103;-73
2023/08/03 06:13:05;;;;;;;19.52;2.65;;;;;;;;;;4998270;28;25110;-73
2023/08/03 06:15:31;;;;;;;12.15;2.30;;;;;;;;;;5001117;28;25057;-72
2023/08/03 06:18:04;;;;;;;13.38;3.03;;;;;;;;;;4990981;28;25059;-73
2023/08/03 06:20:30;;;;;;;12.65;2.38;;;;;;;;;;4996011;28;25065;-75
2023/08/03 06:22:56;;;;;;;13.05;3.47;;;;;;;;;;5004422;28;25148;-74
2023/08/03 06:25:22;;;;;;;14.90;3.60;;;;;;;;;;5004497;28;25130;-73
2023/08/03 06:27:48;;;;;;;12.07;2.97;;;;;;;;;;4986685;28;25104;-74
2023/08/03 06:30:15;;;;;;;11.98;3.47;;;;;;;;;;4990717;28;25050;-73
2023/08/03 06:32:41;;;;;;;23.20;3.67;;;;;;;;;;4994513;28;25143;-71
2023/08/03 06:35:24;;;;;;;24.90;4.18;;;;;;;;;;4994042;28;25072;-71
2023/08/03 06:37:50;;;;;;;16.33;3.13;;;;;;;;;;4988802;28;25089;-72
2023/08/03 06:40:16;;;;;;;13.57;2.63;;;;;;;;;;4984999;28;25087;-71
2023/08/03 06:42:42;;;;;;;21.55;3.40;;;;;;;;;;4989034;28;25168;-71
2023/08/03 06:45:08;;;;;;;21.60;4.03;;;;;;;;;;4994364;28;25083;-70
2023/08/03 06:47:34;;;;;;;21.38;3.95;;;;;;;;;;5001037;28;25119;-73
2023/08/03 06:50:01;;;;;;;16.40;3.72;;;;;;;;;;4999280;28;25066;-72
2023/08/03 06:52:27;;;;;;;22.02;4.30;;;;;;;;;;4985851;28;25053;-73
2023/08/03 06:54:53;;;;;;;18.80;3.35;;;;;;;;;;5003177;28;25083;-76
2023/08/03 06:57:19;;;;;;;14.82;3.65;;;;;;;;;;4992613;28;25138;-72
2023/08/03 06:59:45;;;;;;;23.55;3.33;;;;;;;;;;4988594;28;25052;-72
2023/08/03 07:02:11;;;;;;;15.43;3.65;;;;;;;;;;4993749;28;25062;-74
2023/08/03 07:04:37;;;;;;;20.42;4.32;;;;;;;;;;5002568;28;25104;-72
2023/08/03 07:07:03;;;;;;;17.17;3.42;;;;;;;;;;4995219;28;25051;-73
2023/08/03 07:09:29;;;;;;;16.88;3.15;;;;;;;;;;4999986;28;25155;-73
2023/08/03 07:11:55;;;;;;;14.20;3.60;;;;;;;;;;5001140;28;25091;-72
2023/08/03 07:14:21;;;;;;;23.20;3.55;;;;;;;;;;4988023;28;25061;-72
2023/08/03 07:16:47;;;;;;;20.10;3.45;;;;;;;;;;5002639;28;25068;-73
2023/08/03 07:19:16;;;;;;;19.42;4.05;;;;;;;;;;4998064;28;25085;-73
2023/08/03 07:21:42;;;;;;;25.83;4.15;;;;;;;;;;4995622;28;25068;-73
2023/08/03 07:24:09;;;;;;;20.30;5.40;;;;;;;;;;4997109;28;25056;-73
2023/08/03 07:26:35;;;;;;;16.90;4.20;;;;;;;;;;4997956;28;25047;-73
2023/08/03 07:29:01;;;;;;;28.48;4.53;;;;;;;;;;5002201;28;25155;-72
2023/08/03 07:31:27;;;;;;;22.45;4.68;;;;;;;;;;4994003;28;25055;-72
2023/08/03 07:33:54;;;;;;;21.45;4.45;;;;;;;;;;4997743;28;25061;-71
2023/08/03 07:36:20;;;;;;;15.68;4.07;;;;;;;;;;5004604;28;25064;-73
2023/08/03 07:38:46;;;;;;;22.45;5.00;;;;;;;;;;4995725;28;25077;-73
2023/08/03 07:41:12;;;;;;;19.58;4.22;;;;;;;;;;5014347;28;25070;-71
2023/08/03 07:43:38;;;;;;;17.90;3.63;;;;;;;;;;5002944;28;25073;-73
2023/08/03 07:46:04;;;;;;;21.60;5.03;;;;;;;;;;4999559;28;25079;-72
2023/08/03 07:48:30;;;;;;;15.15;3.60;;;;;;;;;;5000510;28;25076;-71
2023/08/03 07:50:56;;;;;;;14.95;3.83;;;;;;;;;;4992755;28;25078;-72
2023/08/03 07:53:22;;;;;;;13.95;3.95;;;;;;;;;;5011078;28;25081;-72
2023/08/03 07:55:48;;;;;;;14.13;3.20;;;;;;;;;;4995663;28;25069;-71
2023/08/03 07:58:14;;;;;;;9.75;3.60;;;;;;;;;;4999549;28;25081;-71
2023/08/03 08:00:40;;;;;;;11.38;3.17;;;;;;;;;;5002954;28;25058;-72
2023/08/03 08:03:06;;;;;;;16.88;3.63;;;;;;;;;;5004802;28;25068;-72
2023/08/03 08:05:32;;;;;;;12.10;3.08;;;;;;;;;;5005364;28;25056;-72
2023/08/03 08:07:57;;;;;;;9.07;2.85;;;;;;;;;;5017159;28;25067;-71
2023/08/03 08:10:23;;;;;;;11.95;2.67;;;;;;;;;;5017845;28;25066;-72
2023/08/03 08:12:49;;;;;;;9.88;2.47;;;;;;;;;;4997622;28;25076;-73
2023/08/03 08:15:16;;;;;;;6.53;2.75;;;;;;;;;;5009280;28;25078;-75
2023/08/03 08:17:42;;;;;;;7.95;2.20;;;;;;;;;;4999585;28;25101;-73
2023/08/03 08:20:08;;;;;;;7.55;2.88;;;;;;;;;;5010826;28;25171;-72
2023/08/03 08:22:34;;;;;;;11.20;2.85;;;;;;;;;;5004031;28;25065;-72
2023/08/03 08:25:00;;;;;;;9.00;3.17;;;;;;;;;;5000214;28;25160;-72
2023/08/03 08:27:26;;;;;;;7.35;2.95;;;;;;;;;;5004631;28;25087;-74
2023/08/03 08:29:52;;;;;;;7.68;2.30;;;;;;;;;;4997832;28;25153;-73
2023/08/03 08:32:18;;;;;;;7.47;2.92;;;;;;;;;;4999860;28;25076;-73
2023/08/03 08:34:44;;;;;;;8.40;2.95;;;;;;;;;;4996150;28;25080;-72
2023/08/03 08:37:10;;;;;;;9.93;2.70;;;;;;;;;;4998381;28;25116;-74
2023/08/03 08:39:36;;;;;;;8.15;2.33;;;;;;;;;;5013630;28;25058;-72
2023/08/03 08:42:11;;;;;;;6.90;2.20;;;;;;;;;;5001850;28;25075;-73
2023/08/03 08:44:38;;;;;;;9.93;2.55;;;;;;;;;;5002356;28;25060;-72
2023/08/03 08:47:04;;;;;;;17.63;3.88;;;;;;;;;;5001767;28;25148;-72
2023/08/03 08:49:30;;;;;;;9.93;3.13;;;;;;;;;;4994981;28;25101;-72
2023/08/03 08:51:59;;;;;;;12.80;3.65;;;;;;;;;;5001780;28;25115;-72
2023/08/03 08:54:31;;;;;;;11.15;2.78;;;;;;;;;;4995406;28;25067;-74
2023/08/03 08:56:57;;;;;;;10.15;2.92;;;;;;;;;;4995230;28;24891;-72
2023/08/03 08:59:23;;;;;;;11.95;2.85;;;;;;;;;;5005822;28;25057;-72
2023/08/03 09:01:53;;;;;;;15.95;3.20;;;;;;;;;;4997898;28;25071;-72
2023/08/03 09:04:30;;;;;;;20.50;4.60;;;;;;;;;;4992873;28;25052;-72
2023/08/03 09:06:56;;;;;;;15.40;4.72;;;;;;;;;;5001759;28;25065;-71
2023/08/03 09:09:42;;;;;;;22.67;4.85;;;;;;;;;;4999200;28;25075;-74
2023/08/03 09:12:08;;;;;;;29.48;5.97;;;;;;;;;;5002831;28;25057;-72
2023/08/03 09:14:49;;;;;;;20.92;5.28;;;;;;;;;;5000811;28;25110;-73
2023/08/03 09:17:22;;;;;;;22.92;5.10;;;;;;;;;;4999047;28;25104;-71
2023/08/03 09:19:48;;;;;;;25.98;5.43;;;;;;;;;;4989129;28;25060;-73
2023/08/03 09:22:15;;;;;;;22.83;5.78;;;;;;;;;;4998321;28;25080;-72
2023/08/03 09:24:41;;;;;;;21.70;5.07;;;;;;;;;;5008150;28;25059;-73
2023/08/03 09:27:07;;;;;;;26.92;6.07;;;;;;;;;;4999866;28;25067;-72
2023/08/03 09:29:34;;;;;;;30.30;6.13;;;;;;;;;;5007698;28;25063;-73
2023/08/03 09:32:02;;;;;;;20.52;5.38;;;;;;;;;;5004418;28;25107;-71
2023/08/03 09:34:38;;;;;;;15.70;4.22;;;;;;;;;;4990466;28;25063;-72
2023/08/03 09:37:04;;;;;;;22.73;4.90;;;;;;;;;;4993474;28;25065;-73
2023/08/03 09:39:34;;;;;;;13.52;4.10;;;;;;;;;;5001590;28;25124;-72
2023/08/03 09:42:04;;;;;;;19.08;4.65;;;;;;;;;;4992017;28;25135;-71
2023/08/03 09:44:33;;;;;;;18.52;4.97;;;;;;;;;;4992716;28;25076;-72
2023/08/03 09:47:00;;;;;;;18.10;4.28;;;;;;;;;;4996703;28;25069;-72
2023/08/03 09:49:26;;;;;;;11.00;3.83;;;;;;;;;;5004888;28;25064;-71
2023/08/03 09:51:53;;;;;;;19.80;4.35;;;;;;;;;;4997485;28;25083;-71
2023/08/03 09:54:29;;;;;;;18.60;5.40;;;;;;;;;;4991033;28;25065;-72
2023/08/03 09:56:59;;;;;;;22.92;4.75;;;;;;;;;;5017777;28;25054;-72
2023/08/03 09:59:27;;;;;;;18.50;4.55;;;;;;;;;;4996681;28;25067;-73
2023/08/03 10:01:57;;;;;;;14.35;4.45;;;;;;;;;;4992503;28;25169;-71
2023/08/03 10:04:25;;;;;;;18.08;4.05;;;;;;;;;;4991937;28;25054;-73
2023/08/03 10:06:51;;;;;;;17.38;4.10;;;;;;;;;;4992421;28;25145;-74
2023/08/03 10:09:21;;;;;;;13.02;2.97;;;;;;;;;;4996555;28;25156;-72
2023/08/03 10:11:48;;;;;;;11.10;2.88;;;;;;;;;;4994272;28;25062;-73
2023/08/03 10:14:17;;;;;;;17.23;4.22;;;;;;;;;;4993906;28;25067;-74
2023/08/03 10:16:44;;;;;;;8.20;2.67;;;;;;;;;;4995745;28;25080;-73
2023/08/03 10:19:11;;;;;;;6.47;2.10;;;;;;;;;;4997268;28;25086;-72
2023/08/03 10:21:37;;;;;;;12.20;3.22;;;;;;;;;;5007121;28;25122;-72
2023/08/03 10:24:11;;;;;;;10.15;3.30;;;;;;;;;;4994144;28;25070;-75
2023/08/03 10:26:37;;;;;;;8.18;3.45;;;;;;;;;;4993967;28;25077;-75
2023/08/03 10:29:06;;;;;;;9.82;3.10;;;;;;;;;;4990862;28;25049;-74
2023/08/03 10:31:32;;;;;;;13.02;3.53;;;;;;;;;;4985558;28;25081;-74
2023/08/03 10:33:58;;;;;;;9.38;2.30;;;;;;;;;;4996365;28;25058;-73
2023/08/03 10:36:27;;;;;;;8.02;2.53;;;;;;;;;;5003259;28;25077;-73
2023/08/03 10:38:53;;;;;;;2.53;1.83;;;;;;;;;;4996689;28;25087;-73
2023/08/03 10:41:22;;;;;;;11.35;2.38;;;;;;;;;;4993188;28;25141;-72
2023/08/03 10:44:09;;;;;;;6.97;1.92;;;;;;;;;;4988336;28;25065;-72
2023/08/03 10:46:36;;;;;;;7.50;1.98;;;;;;;;;;4992240;28;25117;-75
2023/08/03 10:49:27;;;;;;;8.70;2.28;;;;;;;;;;4996839;28;25081;-75
2023/08/03 10:52:14;;;;;;;3.55;1.65;;;;;;;;;;4983166;28;25061;-74
2023/08/03 10:54:40;;;;;;;4.78;1.77;;;;;;;;;;4997342;28;25067;-74
2023/08/03 10:57:12;;;;;;;6.80;1.75;;;;;;;;;;4997157;28;25172;-74
2023/08/03 10:59:38;;;;;;;;;;;;;;;;;;4985125;28;25075;-73
2023/08/03 11:02:11;;;;;;;7.35;1.55;;;;;;;;;;4995743;28;25071;-74
2023/08/03 11:04:39;;;;;;;3.13;0.90;;;;;;;;;;5000141;28;25075;-74
2023/08/03 11:07:05;;;;;;;4.25;1.70;;;;;;;;;;5003650;28;25051;-72
2023/08/03 11:09:31;;;;;;;2.10;0.98;;;;;;;;;;5002644;28;25078;-74
2023/08/03 11:11:57;;;;;;;3.90;1.20;;;;;;;;;;4995943;28;25070;-74
2023/08/03 11:14:24;;;;;;;5.78;1.33;;;;;;;;;;5008670;28;25067;-75
2023/08/03 11:16:50;;;;;;;4.40;1.40;;;;;;;;;;4999617;28;25086;-75
2023/08/03 11:19:16;;;;;;;3.83;1.48;;;;;;;;;;4998475;28;25058;-73
2023/08/03 11:21:42;;;;;;;8.70;2.17;;;;;;;;;;4997837;28;25070;-76
2023/08/03 11:24:08;;;;;;;6.35;1.88;;;;;;;;;;4998459;28;25062;-73
2023/08/03 11:26:34;;;;;;;5.50;2.40;;;;;;;;;;5008248;28;25052;-74
2023/08/03 11:29:00;;;;;;;2.75;1.65;;;;;;;;;;4987453;28;25083;-73
2023/08/03 11:31:26;;;;;;;5.07;1.80;;;;;;;;;;4991462;28;25054;-75
2023/08/03 11:33:52;;;;;;;6.15;2.45;;;;;;;;;;4991061;28;25057;-74
2023/08/03 11:36:19;;;;;;;6.88;2.22;;;;;;;;;;4994168;28;25062;-75
2023/08/03 11:38:45;;;;;;;10.55;3.28;;;;;;;;;;4989686;28;25100;-75
2023/08/03 11:41:18;;;;;;;15.15;3.45;;;;;;;;;;5003339;28;25075;-75
2023/08/03 11:43:44;;;;;;;14.25;2.88;;;;;;;;;;4998410;28;25050;-75
2023/08/03 11:46:10;;;;;;;16.42;3.67;;;;;;;;;;4995410;28;25065;-73
2023/08/03 11:48:36;;;;;;;12.65;3.10;;;;;;;;;;4997576;28;25056;-74
2023/08/03 11:51:03;;;;;;;13.02;3.85;;;;;;;;;;5003203;28;25063;-74
2023/08/03 11:53:30;;;;;;;18.33;5.20;;;;;;;;;;4995411;28;25110;-73
2023/08/03 11:55:59;;;;;;;13.43;3.70;;;;;;;;;;5003009;28;25089;-72
2023/08/03 11:58:26;;;;;;;21.65;4.72;;;;;;;;;;4998553;28;25091;-74
2023/08/03 12:00:57;;;;;;;19.40;4.63;;;;;;;;;;5001542;28;25073;-74
2023/08/03 12:03:53;;;;;;;15.18;4.22;;;;;;;;;;4989197;28;25152;-74
2023/08/03 12:06:19;;;;;;;16.73;4.28;;;;;;;;;;4989379;28;25061;-74
2023/08/03 12:08:45;;;;;;;21.63;4.43;;;;;;;;;;5003179;28;25119;-73
2023/08/03 12:11:15;;;;;;;17.48;4.07;;;;;;;;;;4995978;28;25051;-73
2023/08/03 12:13:41;;;;;;;19.95;4.55;;;;;;;;;;5003511;28;25058;-72
2023/08/03 12:16:07;;;;;;;18.33;4.15;;;;;;;;;;4996854;28;25082;-73
2023/08/03 12:18:33;;;;;;;14.55;4.28;;;;;;;;;;5006178;28;25103;-74
2023/08/03 12:20:59;;;;;;;17.40;4.40;;;;;;;;;;4990962;28;25061;-73
2023/08/03 12:23:25;;;;;;;20.73;4.40;;;;;;;;;;4997764;28;25052;-73
2023/08/03 12:25:52;;;;;;;15.65;4.40;;;;;;;;;;5002822;28;25050;-72
2023/08/03 12:28:18;;;;;;;15.40;4.18;;;;;;;;;;5014527;28;25099;-75
2023/08/03 12:30:44;;;;;;;10.63;3.47;;;;;;;;;;4996699;28;25075;-71
2023/08/03 12:33:11;;;;;;;19.88;4.43;;;;;;;;;;5017184;28;25063;-72
2023/08/03 12:35:37;;;;;;;15.18;3.78;;;;;;;;;;5001331;28;25078;-73
2023/08/03 12:38:03;;;;;;;12.50;3.88;;;;;;;;;;4997480;28;25068;-74
2023/08/03 12:40:29;;;;;;;12.57;3.70;;;;;;;;;;4989686;28;25084;-75
2023/08/03 12:42:55;;;;;;;22.90;3.17;;;;;;;;;;5003519;28;25086;-73
2023/08/03 12:45:24;;;;;;;17.00;3.60;;;;;;;;;;4996864;28;25149;-72
2023/08/03 12:47:53;;;;;;;14.68;3.40;;;;;;;;;;5008225;28;25173;-73
2023/08/03 12:50:19;;;;;;;12.68;3.90;;;;;;;;;;5010847;28;25068;-73
2023/08/03 12:52:46;;;;;;;15.73;3.63;;;;;;;;;;4995665;28;25064;-74
2023/08/03 12:55:12;;;;;;;9.80;3.22;;;;;;;;;;5003242;28;25063;-73
2023/08/03 12:57:38;;;;;;;12.10;3.08;;;;;;;;;;5002402;28;25065;-73
2023/08/03 13:00:05;;;;;;;14.10;3.10;;;;;;;;;;4998866;28;25147;-75
2023/08/03 13:02:31;;;;;;;13.40;2.95;;;;;;;;;;5001454;28;25133;-73
2023/08/03 13:04:57;;;;;;;14.48;3.13;;;;;;;;;;5007219;28;25069;-73
2023/08/03 13:07:23;;;;;;;12.43;3.63;;;;;;;;;;5001275;28;25066;-75
2023/08/03 13:09:49;;;;;;;8.43;2.45;;;;;;;;;;4994880;28;25117;-74
2023/08/03 13:12:15;;;;;;;11.82;2.70;;;;;;;;;;5005316;28;25067;-73
2023/08/03 13:14:41;;;;;;;12.50;2.80;;;;;;;;;;5007892;28;25117;-73
2023/08/03 13:17:07;;;;;;;13.60;3.05;;;;;;;;;;5003655;28;25055;-74
2023/08/03 13:19:34;;;;;;;10.07;2.90;;;;;;;;;;4986950;28;25118;-75
2023/08/03 13:21:59;;;;;;;12.48;3.75;;;;;;;;;;4989317;28;25150;-74
2023/08/03 13:24:25;;;;;;;12.95;2.97;;;;;;;;;;4995346;28;25071;-73
2023/08/03 13:26:54;;;;;;;12.30;2.72;;;;;;;;;;4991507;28;25084;-73
2023/08/03 13:29:20;;;;;;;13.55;2.70;;;;;;;;;;4993030;28;25059;-73
2023/08/03 13:31:46;;;;;;;11.77;3.25;;;;;;;;;;5007258;28;25082;-75
2023/08/03 13:34:13;;;;;;;11.63;2.50;;;;;;;;;;5004267;28;25064;-74
2023/08/03 13:36:39;;;;;;;9.95;2.00;;;;;;;;;;5008177;28;25060;-74
2023/08/03 13:39:05;;;;;;;9.80;2.53;;;;;;;;;;4988582;28;25056;-74
2023/08/03 13:41:31;;;;;;;14.05;3.45;;;;;;;;;;4996889;28;25171;-73
2023/08/03 13:43:57;;;;;;;11.50;3.08;;;;;;;;;;4997256;28;25354;-74
2023/08/03 13:46:23;;;;;;;8.27;2.15;;;;;;;;;;4988881;28;25060;-72
2023/08/03 13:48:49;;;;;;;14.27;2.63;;;;;;;;;;4996156;28;25068;-74
2023/08/03 13:51:15;;;;;;;8.77;2.60;;;;;;;;;;4998404;28;25080;-74
2023/08/03 13:53:41;;;;;;;7.10;2.33;;;;;;;;;;5010999;28;25068;-75
2023/08/03 13:56:07;;;;;;;6.93;1.85;;;;;;;;;;5005295;28;25104;-73
2023/08/03 13:58:33;;;;;;;7.70;2.40;;;;;;;;;;4998918;28;25109;-72
2023/08/03 14:01:00;;;;;;;8.73;2.47;;;;;;;;;;5013303;28;25086;-73
2023/08/03 14:03:26;;;;;;;10.13;2.20;;;;;;;;;;4999169;28;25061;-73
2023/08/03 14:05:52;;;;;;;4.75;2.33;;;;;;;;;;5003564;28;25071;-74
2023/08/03 14:08:18;;;;;;;7.55;2.30;;;;;;;;;;4996179;28;25081;-74
2023/08/03 14:10:44;;;;;;;9.38;2.15;;;;;;;;;;5006492;28;25127;-73
2023/08/03 14:13:10;;;;;;;5.65;2.20;;;;;;;;;;4997508;28;25060;-74
2023/08/03 14:15:36;;;;;;;9.88;2.92;;;;;;;;;;4993730;28;25061;-74
2023/08/03 14:18:02;;;;;;;9.98;2.08;;;;;;;;;;5001890;28;25105;-73
2023/08/03 14:20:28;;;;;;;11.10;2.65;;;;;;;;;;4997605;28;25065;-74
2023/08/03 14:22:54;;;;;;;4.93;1.58;;;;;;;;;;4996820;28;25063;-73
2023/08/03 14:25:20;;;;;;;7.28;1.98;;;;;;;;;;5007076;28;25128;-73
2023/08/03 14:27:46;;;;;;;3.40;1.55;;;;;;;;;;4986582;28;25061;-73
2023/08/03 14:30:12;;;;;;;5.22;1.77;;;;;;;;;;4984283;28;25054;-73
2023/08/03 14:32:39;;;;;;;7.07;2.35;;;;;;;;;;4994352;28;25061;-75
2023/08/03 14:35:05;;;;;;;5.10;2.05;;;;;;;;;;4996783;28;25099;-74